Résultats

Cross de la Nativit. Édition 2015.

1 Km
27/03/2015 à 08:00:00 - Aix en Provence (0)
95 arrivant(e)s.


 
Les autres classements de cet évènement




Place▲ Temps Dossard Nom Prenom Categ #Categ Sexe #Sexe ClubVit Moy Diplôme Partager
1 00:06:22 866 HAMERSTEHL ROMANE MIF 1 F 1 3 69.42
2 00:06:28 887 COULON PAULINE MIF 2 F 2 3 79.28
3 00:06:31 825 DAMOURETTE VALENTINE MIF 3 F 3 3 59.21
4 00:06:45 778 SAUVAGEOT EMILIE MIF 4 F 4 3 38.89
5 00:06:47 823 CHIARIGLIONE ANNE-LISE MIF 5 F 5 3 58.85
6 00:06:52 710 PAILLONCY ALICE MIF 6 F 6 3 18.74
7 00:06:57 748 SAINT-YVES EMMIE MIF 7 F 7 3 28.63
8 00:06:58 817 BOUGRAT MARIE MIF 8 F 8 3 58.61
9 00:07:03 835 LACORDAIRE AMANDINE MIF 9 F 9 3 58.51
10 00:07:10 889 DE-QUEIROZ ALICIA MIF 10 F 10 3 78.37
11 00:07:11 729 CALAME MARINE MIF 11 F 11 3 28.35
12 00:07:14 738 LAURIOZ VALENTINE MIF 12 F 12 3 28.29
13 00:07:26 840 MOUILLESAUX-DE-BERNIERES GABRIELLE MIF 13 F 13 3 58.07
14 00:07:26 792 DADOLLE LYS MIF 14 F 14 3 48.07
15 00:07:27 796 ESQUIVA-SALVO JULIA MIF 15 F 15 3 48.05
16 00:07:27 806 MOUILLESAUX-DE-BERNIERES SOPHIE MIF 16 F 16 3 48.05
17 00:07:33 790 CHEREL ANNA MIF 17 F 17 3 47.95
18 00:07:34 853 BURLOT AURELIE MIF 18 F 18 3 67.93
19 00:07:38 841 NIDDAM LEA MIF 19 F 19 3 57.86
20 00:07:40 763 GUILLOU LEA MIF 20 F 20 3 37.83
21 00:07:41 845 VICARINI HONORINE MIF 21 F 21 3 57.81
22 00:07:43 900 LABATE EMMA MIF 22 F 22 3 77.78
23 00:07:44 757 COAT JULIETTE MIF 23 F 23 3 37.76
24 00:07:47 711 PANOSSIAN MALVINA MIF 24 F 24 3 17.71
25 00:07:48 843 VERA PAULINE MIF 25 F 25 3 57.69
26 00:07:49 777 SALIS PERRINE MIF 26 F 26 3 37.68
27 00:07:49 837 LHUILLIER CAPUCINE MIF 27 F 27 3 57.68
28 00:07:49 715 POUCH LOUISE MIF 28 F 28 3 17.68
29 00:07:49 830 DURAND-DAGICOUR ALICE MIF 29 F 29 3 57.68
30 00:07:55 859 EDJIDIAN VALENTINE MIF 30 F 30 3 67.58
31 00:07:58 860 EIFLER-BOLANDER JULIE MIF 31 F 31 3 67.53
32 00:08:03 901 MARIN SIBYLLE MIF 32 F 32 3 77.45
33 00:08:04 832 FLAMENT MARIE-SOPHIE MIF 33 F 33 3 57.44
34 00:08:06 908 TABOURET CAMILLE MIF 34 F 34 3 77.41
35 00:08:07 726 BEYS LAURA MIF 35 F 35 3 27.39
36 00:08:08 740 MATHES LUCILE MIF 36 F 36 3 27.38
37 00:08:10 755 CHELELINKIAN THAIS MIF 37 F 37 3 37.35
38 00:08:13 758 DAVID LORIANE MIF 38 F 38 3 37.30
39 00:08:15 801 LABARUTIAS IRIS MIF 39 F 39 3 47.27
40 00:08:15 788 CHALLAND ANOUK MIF 40 F 40 3 47.27
41 00:08:20 728 BOCQUET LAURE MIF 41 F 41 3 27.20
42 00:08:22 849 BODSON MATHILDE MIF 42 F 42 3 67.17
43 00:08:22 762 GRIMAUD EVA MIF 43 F 43 3 37.17
44 00:08:24 909 VANEL LARA MIF 44 F 44 3 77.14
45 00:08:24 886 COULANGE ALEXANDRINE MIF 45 F 45 3 77.14
46 00:08:25 890 DEHANT AMBRE MIF 46 F 46 3 77.13
47 00:08:26 821 CARAMELLE LAURENE MIF 47 F 47 3 57.11
48 00:08:27 805 MARECHAL MELANIE MIF 48 F 48 3 47.10
49 00:08:28 828 DUCROCQ INES MIF 49 F 49 3 57.09
50 00:08:29 875 STOCKEL HORTENSE MIF 50 F 50 3 67.07
51 00:08:29 877 TRAGIN MARINE MIF 51 F 51 3 67.07
52 00:08:32 834 HIVER OCEANE MIF 52 F 52 3 57.03
53 00:08:32 798 GIRAUD ALIX MIF 53 F 53 3 47.03
54 00:08:34 895 FOURMONT HELENA MIF 54 F 54 3 77.00
55 00:08:34 816 BLED JEANNE MIF 55 F 55 3 57.00
56 00:08:37 855 CIPRIANI CHRISTELLE MIF 56 F 56 3 66.96
57 00:08:37 781 ALBEGIANI LUCILE MIF 57 F 57 3 46.96
58 00:08:40 842 PLISSONNEAU MARION MIF 58 F 58 3 56.92
59 00:08:45 856 DA-FONSECA-PROTAIS LEA MIF 59 F 59 3 66.86
60 00:08:45 720 SOULLIER LAURA MIF 60 F 60 3 16.86
61 00:08:46 850 BONELLI ORIANE MIF 61 F 61 3 66.84
62 00:08:47 879 BAROUX MAXINE MIF 62 F 62 3 76.83
63 00:08:47 759 DESGORCES ANNE-CHARLOTTE MIF 63 F 63 3 36.83
64 00:08:48 754 CARDETTINI ANNA CAF 1 F 64 3 36.82
65 00:08:48 804 LOYER LEA MIF 64 F 65 3 46.82
66 00:08:48 779 STRUBE CLAIRE MIF 65 F 66 3 36.82
67 00:08:51 707 MIQUEL LAURA MIF 66 F 67 3 16.78
68 00:08:53 747 ROCHET CLEMENCE MIF 67 F 68 3 26.75
69 00:08:54 896 GABEN CLARA MIF 68 F 69 3 76.74
70 00:08:58 699 ESTIENNE JUSTINE MIF 69 F 70 3 16.69
71 00:08:59 756 CHENEAU ANASTASIA MIF 70 F 71 3 36.68
72 00:09:01 861 ELYAHMIDI YASSMINE MIF 71 F 72 3 66.65
73 00:09:03 752 BONNARDEL ESTELLE MIF 72 F 73 3 36.63
74 00:09:05 712 PELLET MONA MIF 73 F 74 3 16.61
75 00:09:11 743 PHILIPP MARIE-LINE MIF 74 F 75 3 26.53
76 00:09:17 760 DESROCHES-TOUCHAIN ARIANE MIF 75 F 76 3 36.46
77 00:09:18 782 BECHINI EMMA MIF 76 F 77 3 46.45
78 00:09:21 753 CAHUZAC FIONA MIF 77 F 78 3 36.42
79 00:09:21 765 JULIEN EMMANUELLE BEF 1 F 79 3 36.42
80 00:09:26 791 CRUCIANI LEIA MIF 78 F 80 3 46.36
81 00:09:31 894 FONTANA ELISA MIF 79 F 81 3 76.30
82 00:09:32 696 CARRATORI LUCILLE MIF 80 F 82 3 16.29
83 00:09:33 839 MARTIN CAROLINE MIF 81 F 83 3 56.28
84 00:09:34 809 RIEU CHLOE MIF 82 F 84 3 46.27
85 00:09:36 704 MARTIN CHARLOTTE MIF 83 F 85 3 16.25
86 00:09:41 692 BASTIANOS MAELYS MIF 84 F 86 3 16.20
87 00:10:22 827 DEWANDRE VALENTINE MIF 85 F 87 3 55.79
88 00:10:24 814 BAIN CERI MIF 86 F 88 3 55.77
89 00:10:35 734 DUROUCHOUX GABRIELLE MIF 87 F 89 3 25.67
90 00:11:12 907 RODRIGUEZ ELIZABETH MIF 88 F 90 3 75.36
91 00:12:16 717 RODRIGUES ANTEA MIF 89 F 91 3 14.89
92 00:12:16 865 HAGEN ANNA MIF 90 F 92 3 64.89
93 00:13:17 851 BOURRELY CLAIRE CAF 2 F 93 3 64.52
94 00:13:17 864 GRANGE EVA MIF 91 F 94 3 64.52
95 00:13:21 884 CIAVALDINI MADELEINE MIF 92 F 95 3 74.49